ADDS METAR Data INFO
IDs: Format: Raw Decoded Include TAF

Data at: 0350 UTC 18 Oct 2017

KLDJ 180315Z AUTO 00000KT 10SM CLR 10/03 A3031 RMK AO2 T01000032
KLDJ 180255Z AUTO 00000KT 10SM CLR 10/04 A3031 RMK AO2 T01000035
KLDJ 180235Z AUTO 00000KT 10SM CLR 10/04 A3030 RMK AO2 T01010037
KLDJ 180215Z AUTO 00000KT 10SM CLR 10/04 A3030 RMK AO2 T01010036
KLDJ 180155Z AUTO 00000KT 10SM CLR 11/04 A3030 RMK AO2 T01050036
KLDJ 180135Z AUTO 21003KT 10SM CLR 11/04 A3029 RMK AO2 T01070036
KLDJ 180115Z AUTO 00000KT 10SM CLR 11/04 A3029 RMK AO2 T01100038
KLDJ 180055Z AUTO 00000KT 10SM CLR 11/04 A3029 RMK AO2 T01120036
KLDJ 180035Z AUTO 22004KT 10SM CLR 12/04 A3028 RMK AO2 T01170035
KLDJ 180015Z AUTO 19005KT 10SM CLR 13/03 A3028 RMK AO2 T01250025
KLDJ 172355Z AUTO 00000KT 10SM CLR 13/01 A3028 RMK AO2 T01250006 10157 20125
KLDJ 172335Z AUTO 00000KT 10SM CLR 13/00 A3028 RMK AO2 T01300000
KLDJ 172235Z AUTO 00000KT 10SM CLR 14/00 A3026 RMK AO2 T01410000
KLDJ 172215Z AUTO 00000KT 10SM CLR 15/M01 A3026 RMK AO2 T01481010
KLDJ 172155Z AUTO 27005KT 10SM CLR 15/M01 A3026 RMK AO2 T01511011
KLDJ 172135Z AUTO 00000KT 10SM CLR 15/M01 A3025 RMK AO2 T01531007
KLDJ 172115Z AUTO 28005KT 10SM CLR 16/M01 A3026 RMK AO2 T01551010
KLDJ 172055Z AUTO 25003KT 10SM CLR 16/00 A3026 RMK AO2 T01561005
KLDJ 172035Z AUTO 00000KT 10SM CLR 16/M01 A3026 RMK AO2 T01561007
KLDJ 172015Z AUTO 00000KT 10SM CLR 16/00 A3027 RMK AO2 T01551001
KLDJ 171955Z AUTO 00000KT 10SM CLR 15/00 A3027 RMK AO2 T01531005
KLDJ 171935Z AUTO 00000KT 10SM CLR 15/M01 A3027 RMK AO2 T01511007
KLDJ 171915Z AUTO 00000KT 10SM CLR 15/00 A3028 RMK AO2 T01501002
KLDJ 171855Z AUTO 00000KT 10SM CLR 14/M01 A3028 RMK AO2 T01421006
KLDJ 171835Z AUTO 00000KT 10SM CLR 15/00 A3029 RMK AO2 T01481001
KLDJ 171815Z AUTO 00000KT 10SM CLR 14/M01 A3030 RMK AO2 T01411006
KLDJ 171755Z AUTO 00000KT 10SM CLR 14/M01 A3030 RMK AO2 T01361015 10136 20046
KLDJ 171735Z AUTO 30003KT 10SM CLR 13/00 A3031 RMK AO2 T01331004
KLDJ 171715Z AUTO 28003KT 10SM CLR 12/M01 A3032 RMK AO2 T01231008
KLDJ 171655Z AUTO 00000KT 10SM CLR 13/00 A3033 RMK AO2 T01251005
KLDJ 171555Z AUTO 00000KT 10SM CLR 11/00 A3034 RMK AO2 T01141004
KLDJ 171535Z AUTO 00000KT 10SM CLR 10/M01 A3035 RMK AO2 T01011012
KLDJ 171515Z AUTO 00000KT 10SM CLR 10/M01 A3035 RMK AO2 T01041006
KLDJ 171455Z AUTO 00000KT 10SM CLR 10/M01 A3035 RMK AO2 T01011007
KLDJ 171415Z AUTO 00000KT 10SM CLR 09/00 A3036 RMK AO2 T00941003
KLDJ 171355Z AUTO 00000KT 10SM CLR 08/00 A3036 RMK AO2 T00800002
KLDJ 171335Z AUTO 36003KT 10SM CLR 08/00 A3037 RMK AO2 T00770004
KLDJ 171315Z AUTO 01004KT 10SM CLR 07/00 A3037 RMK AO2 T00700004
KLDJ 171255Z AUTO 36005KT 10SM CLR 07/01 A3036 RMK AO2 T00650005
KLDJ 171235Z AUTO 35004KT 10SM CLR 06/00 A3035 RMK AO2 T00550004
KLDJ 171215Z AUTO 34006KT 10SM CLR 05/00 A3034 RMK AO2 T00490001
KLDJ 171155Z AUTO 33004KT 10SM CLR 04/00 A3033 RMK AO2 T00430001 10067 20040
KLDJ 171135Z AUTO 33004KT 10SM CLR 04/00 A3033 RMK AO2 T00410000
KLDJ 171115Z AUTO 00000KT 10SM CLR 04/00 A3033 RMK AO2 T00410000
KLDJ 171055Z AUTO 33003KT 10SM CLR 04/00 A3033 RMK AO2 T00400000
KLDJ 171035Z AUTO 33004KT 10SM CLR 05/00 A3032 RMK AO2 T00450000
KLDJ 171015Z AUTO 34003KT 10SM CLR 05/00 A3031 RMK AO2 T00451001
KLDJ 170955Z AUTO 00000KT 10SM CLR 05/00 A3030 RMK AO2 T00501002
KLDJ 170935Z AUTO 35004KT 10SM CLR 05/00 A3029 RMK AO2 T00501002
KLDJ 170915Z AUTO 35004KT 10SM CLR 05/00 A3029 RMK AO2 T00511003
KLDJ 170855Z AUTO 35004KT 10SM CLR 05/00 A3027 RMK AO2 T00521003
KLDJ 170835Z AUTO 35005KT 10SM CLR 06/00 A3026 RMK AO2 T00551005
KLDJ 170815Z AUTO 34006KT 10SM CLR 06/00 A3026 RMK AO2 T00551005
KLDJ 170755Z AUTO 34005KT 10SM CLR 06/00 A3026 RMK AO2 T00561005
KLDJ 170735Z AUTO 33004KT 10SM CLR 06/M01 A3026 RMK AO2 T00601006
KLDJ 170715Z AUTO 34005KT 10SM CLR 06/M01 A3026 RMK AO2 T00611007
KLDJ 170655Z AUTO 34005KT 10SM CLR 06/M01 A3026 RMK AO2 T00621007
KLDJ 170635Z AUTO 34005KT 10SM CLR 06/M01 A3026 RMK AO2 T00631008
KLDJ 170615Z AUTO 33005KT 10SM CLR 07/M01 A3025 RMK AO2 T00651008
KLDJ 170555Z AUTO 33005KT 10SM CLR 07/M01 A3025 RMK AO2 T00661010 10118 20065 402000065
KLDJ 170535Z AUTO 34006KT 10SM CLR 07/M01 A3024 RMK AO2 T00701014
KLDJ 170515Z AUTO 34007KT 10SM CLR 08/M01 A3024 RMK AO2 T00751015
KLDJ 170455Z AUTO 35005KT 10SM CLR 08/M02 A3023 RMK AO2 T00781016
KLDJ 170435Z AUTO 34008KT 10SM CLR 08/M02 A3023 RMK AO2 T00801016
KLDJ 170415Z AUTO 33008KT 10SM CLR 08/M01 A3023 RMK AO2 T00821014
KLDJ 170355Z AUTO 34007KT 10SM CLR 09/M01 A3023 RMK AO2 T00861015
KLDJ 170335Z AUTO 35006KT 10SM CLR 09/M01 A3023 RMK AO2 T00901010
KLDJ 170315Z AUTO 36009G15KT 320V020 10SM CLR 09/00 A3022 RMK AO2 T00921005
KLDJ 170255Z AUTO 36008KT 10SM CLR 10/00 A3022 RMK AO2 T00950001
KLDJ 170235Z AUTO 36009KT 10SM CLR 10/00 A3021 RMK AO2 T00980000
KLDJ 170215Z AUTO 35006KT 10SM CLR 10/00 A3020 RMK AO2 T01001001
KLDJ 170155Z AUTO 35006KT 10SM CLR 10/00 A3020 RMK AO2 T01030000
KLDJ 170135Z AUTO 35008KT 10SM CLR 11/00 A3019 RMK AO2 T01050000
KLDJ 170115Z AUTO 34008KT 310V010 10SM CLR 11/00 A3018 RMK AO2 T01100000
KLDJ 170055Z AUTO 35008KT 10SM CLR 11/00 A3016 RMK AO2 T01100000
KLDJ 170035Z AUTO 34006KT 10SM CLR 11/00 A3016 RMK AO2 T01110004
KLDJ 170015Z AUTO 35009KT 10SM CLR 12/00 A3015 RMK AO2 T01160003
KLDJ 162355Z AUTO 34006G14KT 10SM CLR 12/00 A3015 RMK AO2 T01190002 10150 20119
KLDJ 162335Z AUTO 34011G16KT 10SM CLR 12/01 A3014 RMK AO2 T01210007
KLDJ 162235Z AUTO 34009G18KT 10SM CLR 13/01 A3010 RMK AO2 T01310010
KLDJ 162215Z AUTO 33011G14KT 10SM SCT049 14/02 A3009 RMK AO2 T01350019
KLDJ 162155Z AUTO 33009G15KT 10SM SCT049 14/03 A3009 RMK AO2 T01370027
KLDJ 162135Z AUTO 01010KT 10SM SCT047 14/02 A3008 RMK AO2 T01380024
KLDJ 162115Z AUTO 35009G14KT 10SM CLR 14/03 A3007 RMK AO2 T01380027
KLDJ 162055Z AUTO 01008KT 10SM CLR 14/03 A3006 RMK AO2 T01400033
KLDJ 162035Z AUTO 33009G17KT 10SM CLR 14/03 A3006 RMK AO2 T01380030
KLDJ 162015Z AUTO 33015G19KT 10SM CLR 14/03 A3006 RMK AO2 T01370031
KLDJ 161955Z AUTO 33011G18KT 10SM CLR 14/03 A3005 RMK AO2 T01370032
KLDJ 161935Z AUTO 35011G19KT 10SM CLR 14/03 A3005 RMK AO2 T01390030
KLDJ 161855Z AUTO 35014G21KT 10SM CLR 14/03 A3003 RMK AO2 T01420031
KLDJ 161835Z AUTO 36011G17KT 10SM CLR 14/03 A3003 RMK AO2 T01370033
KLDJ 161815Z AUTO 33013G17KT 10SM CLR 14/04 A3003 RMK AO2 T01380043
KLDJ 161755Z AUTO 35011G18KT 10SM CLR 14/04 A3003 RMK AO2 T01370040 10152 20130
KLDJ 161735Z AUTO 34012G18KT 10SM CLR 14/04 A3003 RMK AO2 T01380036
KLDJ 161715Z AUTO 33013KT 10SM CLR 14/04 A3002 RMK AO2 T01410044
KLDJ 161655Z AUTO 36011G14KT 10SM CLR 14/05 A3002 RMK AO2 T01440049
KLDJ 161635Z AUTO 32010KT 10SM CLR 14/04 A3004 RMK AO2 T01350044
KLDJ 161615Z AUTO 34011G16KT 10SM CLR 13/04 A3004 RMK AO2 T01310041
KLDJ 161555Z AUTO 33011G18KT 10SM CLR 13/05 A3004 RMK AO2 T01330049